Airfield :
LOGIN :

Register | Disclaimer

   EN    FR    IT 

 










Legend :    VFR   Marginal VFR   IFR   Intensive IFR   Very Intensive IFR
Visi :
Ceiling :
>= 8 km
>= 3000ft
5 to 8 km
1000 to 3000 ft
1500m to 5 km
500 to 1000 ft
800 to 1500m
200 to 500 ft
< 800m
< 200 ft
Symbols :   Thunderstorms  Fog  Heavy snow  Heavy precipitations  Wind > 20 kt
SIGMETs :     Misc.  Thunderstorms  Icing  Turbulence  Mountain Waves  Volcanic Ashes







- Airport Elevation : 218 ft
- IATA code : LBG
- Download approach charts


LFPB - Paris / Le Bourget

CURRENT METAR :
  • 252300Z AUTO 01004KT CAVOK M02/M10 Q1024 NOSIG

EXPIRED METARs :
  • 252230Z AUTO 04006KT CAVOK M02/M10 Q1024 NOSIG
  • 252200Z AUTO 04009KT CAVOK M02/M10 Q1024 NOSIG
  • 252130Z AUTO 04010KT CAVOK M01/M10 Q1024 NOSIG
  • 252100Z AUTO 03010KT CAVOK M01/M10 Q1024 NOSIG
  • 252030Z AUTO 03009KT CAVOK M01/M10 Q1024 NOSIG

TAF TAF LFPB
Valid from the 25 at 18:00 until the 26 at 18:00 UTC


251700Z 2518/2618 06012KT CAVOK
BECMG 2605/2607 05015G25KT
ATIS : +33 1 48 62 43 92
No reported NOTAMs for that airfield.



MET'MAP, your aeronautical weather chart ! - Copyright ORBIFLY December 2007 - Disclaimer

ORBIFLY MET'MAP TEAM :

Programming & Development : Alexandra Zaïnal
Concept & Development : Baudouin d'Aumeries
Co-Development & Prog : Marc-Olivier Méhu
Technical & hardware support : Manuel Goepfert

Contact : metmap@orbifly.com




SOURCES & CREDITS :

   NOAA